createdAt,value
2023-11-13T00:02:14.913Z,5.10
2023-11-13T00:04:43.006Z,5.10
2023-11-13T00:07:11.177Z,5.10
2023-11-13T00:09:39.041Z,5.10
2023-11-13T00:12:09.786Z,5.10
2023-11-13T00:14:37.747Z,5.10
2023-11-13T00:17:06.099Z,5.10
2023-11-13T00:19:34.145Z,5.10
2023-11-13T00:22:03.293Z,5.10
2023-11-13T00:24:31.186Z,5.10
2023-11-13T00:27:00.266Z,5.10
2023-11-13T00:29:29.509Z,5.00
2023-11-13T00:31:57.451Z,5.00
2023-11-13T00:34:25.516Z,5.10
2023-11-13T00:36:53.586Z,5.10
2023-11-13T00:39:22.200Z,5.10
2023-11-13T00:41:50.082Z,5.20
2023-11-13T00:44:17.951Z,5.10
2023-11-13T00:46:47.320Z,5.20
2023-11-13T00:49:15.297Z,5.20
2023-11-13T00:51:43.789Z,5.20
2023-11-13T00:54:12.054Z,5.20
2023-11-13T00:56:40.062Z,5.20
2023-11-13T00:59:08.171Z,5.20
2023-11-13T01:01:36.143Z,5.30
2023-11-13T01:04:06.145Z,5.30
2023-11-13T01:06:34.248Z,5.10
2023-11-13T01:09:02.255Z,5.10
2023-11-13T01:11:30.282Z,5.10
2023-11-13T01:13:58.285Z,5.10
2023-11-13T01:16:26.381Z,5.00
2023-11-13T01:18:54.705Z,5.10
2023-11-13T01:21:24.585Z,5.20
2023-11-13T01:23:52.642Z,4.90
2023-11-13T01:26:20.588Z,4.80
2023-11-13T01:28:48.479Z,4.80
2023-11-13T01:31:17.122Z,4.90
2023-11-13T01:33:45.271Z,4.90
2023-11-13T01:36:13.244Z,5.00
2023-11-13T01:38:42.459Z,5.20
2023-11-13T01:41:10.328Z,5.20
2023-11-13T01:43:38.199Z,5.20
2023-11-13T01:46:10.899Z,5.20
2023-11-13T01:48:39.175Z,5.30
2023-11-13T01:51:09.119Z,5.30
2023-11-13T01:53:37.897Z,5.20
2023-11-13T01:56:08.272Z,5.10
2023-11-13T01:58:36.362Z,5.10
2023-11-13T02:01:04.958Z,5.10
2023-11-13T02:03:34.709Z,5.20
2023-11-13T02:06:03.060Z,5.20
2023-11-13T02:08:30.934Z,5.20
2023-11-13T02:10:59.051Z,5.20
2023-11-13T02:13:29.302Z,5.30
2023-11-13T02:15:57.252Z,5.20
2023-11-13T02:18:25.110Z,5.30
2023-11-13T02:20:52.994Z,5.30
2023-11-13T02:23:22.234Z,5.20
2023-11-13T02:25:53.271Z,5.20
2023-11-13T02:28:21.329Z,5.20
2023-11-13T02:30:49.583Z,5.30
2023-11-13T02:33:17.712Z,5.30
2023-11-13T02:35:47.511Z,5.30
2023-11-13T02:38:15.405Z,5.30
2023-11-13T02:40:44.653Z,5.20
2023-11-13T02:43:12.591Z,5.30
2023-11-13T02:45:41.526Z,5.30
2023-11-13T02:48:09.505Z,5.40
2023-11-13T02:50:37.422Z,5.30
2023-11-13T02:53:05.323Z,5.30
2023-11-13T02:55:33.194Z,5.30
2023-11-13T02:58:02.531Z,5.20
2023-11-13T03:00:30.684Z,5.20
2023-11-13T03:02:59.423Z,5.30
2023-11-13T03:05:27.970Z,5.20
2023-11-13T03:07:56.650Z,5.20
2023-11-13T03:10:24.621Z,5.30
2023-11-13T03:12:52.671Z,5.30
2023-11-13T03:15:22.734Z,5.30
2023-11-13T03:17:52.765Z,5.20
2023-11-13T03:20:20.688Z,5.30
2023-11-13T03:22:48.563Z,5.30
2023-11-13T03:25:16.685Z,5.30
2023-11-13T03:27:44.695Z,5.20
2023-11-13T03:30:14.702Z,5.20
2023-11-13T03:32:44.567Z,5.30
2023-11-13T03:35:17.584Z,5.40
2023-11-13T03:37:45.612Z,5.30
2023-11-13T03:40:14.215Z,5.20
2023-11-13T03:42:42.389Z,5.00
2023-11-13T03:45:10.935Z,5.10
2023-11-13T03:47:39.532Z,5.40
2023-11-13T03:50:10.262Z,5.40
2023-11-13T03:52:38.134Z,5.30
2023-11-13T03:55:06.907Z,5.10
2023-11-13T03:57:34.805Z,5.20
2023-11-13T04:00:02.700Z,5.40
2023-11-13T04:02:30.594Z,5.40
2023-11-13T04:04:58.452Z,5.30
2023-11-13T04:07:28.384Z,5.50
2023-11-13T04:09:56.294Z,5.60
2023-11-13T04:12:24.200Z,5.30
2023-11-13T04:14:52.961Z,5.70
2023-11-13T04:17:20.821Z,5.70
2023-11-13T04:19:48.701Z,5.60
2023-11-13T04:22:17.359Z,5.40
2023-11-13T04:24:47.195Z,5.40
2023-11-13T04:27:15.103Z,5.60
2023-11-13T04:29:42.969Z,5.50
2023-11-13T04:32:10.845Z,5.50
2023-11-13T04:34:38.746Z,5.60
2023-11-13T04:37:06.940Z,5.50
2023-11-13T04:39:35.113Z,5.30
2023-11-13T04:42:06.008Z,5.60
2023-11-13T04:44:36.862Z,5.60
2023-11-13T04:47:05.323Z,5.70
2023-11-13T04:49:33.261Z,5.80
2023-11-13T04:52:01.116Z,5.70
2023-11-13T04:54:29.014Z,5.50
2023-11-13T04:56:58.452Z,5.70
2023-11-13T04:59:30.532Z,5.60
2023-11-13T05:01:58.551Z,5.60
2023-11-13T05:04:27.665Z,5.70
2023-11-13T05:06:57.928Z,5.60
2023-11-13T05:09:27.338Z,5.70
2023-11-13T05:11:55.203Z,5.90
2023-11-13T05:14:23.067Z,6.10
2023-11-13T05:16:57.038Z,6.10
2023-11-13T05:19:25.446Z,6.00
2023-11-13T05:21:53.413Z,6.20
2023-11-13T05:24:21.332Z,6.10
2023-11-13T05:26:52.284Z,6.30
2023-11-13T05:29:20.659Z,6.30
2023-11-13T05:31:48.860Z,6.30
2023-11-13T05:34:18.412Z,6.40
2023-11-13T05:36:46.334Z,6.70
2023-11-13T05:39:14.205Z,6.50
2023-11-13T05:41:42.114Z,6.50
2023-11-13T05:44:10.110Z,6.50
2023-11-13T05:46:39.910Z,6.70
2023-11-13T05:49:07.848Z,6.60
2023-11-13T05:51:37.121Z,6.70
2023-11-13T05:54:05.446Z,6.80
2023-11-13T05:56:33.749Z,7.00
2023-11-13T05:59:01.857Z,6.90
2023-11-13T06:01:32.752Z,6.90
2023-11-13T06:04:01.126Z,6.80
2023-11-13T06:06:29.403Z,6.90
2023-11-13T06:08:58.705Z,7.00
2023-11-13T06:11:26.595Z,7.10
2023-11-13T06:13:55.000Z,6.90
2023-11-13T06:16:22.976Z,7.10
2023-11-13T06:18:52.211Z,7.10
2023-11-13T06:21:21.192Z,7.10
2023-11-13T06:23:49.134Z,7.20
2023-11-13T06:26:18.640Z,7.10
2023-11-13T06:28:46.511Z,7.10
2023-11-13T06:31:15.607Z,7.20
2023-11-13T06:33:44.923Z,7.20
2023-11-13T06:36:12.821Z,7.20
2023-11-13T06:38:40.748Z,7.20
2023-11-13T06:41:08.638Z,7.30
2023-11-13T06:43:37.932Z,7.30
2023-11-13T06:46:06.334Z,7.40
2023-11-13T06:48:35.605Z,7.40
2023-11-13T06:51:03.582Z,7.30
2023-11-13T06:53:31.933Z,7.50
2023-11-13T06:55:59.883Z,7.50
2023-11-13T06:58:27.787Z,7.40
2023-11-13T07:00:57.760Z,7.50
2023-11-13T07:03:26.029Z,7.40
2023-11-13T07:05:55.037Z,7.40
2023-11-13T07:08:23.262Z,7.50
2023-11-13T07:10:52.036Z,7.40
2023-11-13T07:13:20.563Z,7.50
2023-11-13T07:15:48.651Z,7.60
2023-11-13T07:18:19.540Z,7.60
2023-11-13T07:20:47.997Z,7.60
2023-11-13T07:23:18.740Z,7.60
2023-11-13T07:25:48.832Z,7.50
2023-11-13T07:28:18.148Z,7.60
2023-11-13T07:30:46.145Z,7.70
2023-11-13T07:33:14.054Z,7.80
2023-11-13T07:35:43.278Z,7.80
2023-11-13T07:38:11.149Z,7.70
2023-11-13T07:40:39.250Z,7.70
2023-11-13T07:43:09.606Z,7.80
2023-11-13T07:45:39.117Z,7.70
2023-11-13T07:48:08.623Z,7.70
2023-11-13T07:50:56.452Z,8.00
2023-11-13T07:53:26.500Z,7.80
2023-11-13T07:55:55.414Z,7.80
2023-11-13T07:58:23.844Z,7.80
2023-11-13T08:00:54.005Z,7.80
2023-11-13T08:03:22.008Z,7.80
2023-11-13T08:05:50.001Z,7.70
2023-11-13T08:08:18.716Z,7.70
2023-11-13T08:10:48.823Z,8.00
2023-11-13T08:13:17.322Z,7.80
2023-11-13T08:15:45.850Z,7.90
2023-11-13T08:18:15.797Z,8.00
2023-11-13T08:20:44.174Z,7.80
2023-11-13T08:23:14.768Z,8.00
2023-11-13T08:25:43.326Z,7.90
2023-11-13T08:28:12.845Z,7.80
2023-11-13T08:30:42.634Z,8.00
2023-11-13T08:33:10.737Z,7.80
2023-11-13T08:35:39.075Z,7.90
2023-11-13T08:38:09.808Z,7.90
2023-11-13T08:40:37.808Z,7.90
2023-11-13T08:43:11.448Z,8.00
2023-11-13T08:45:50.444Z,7.90
2023-11-13T08:48:26.167Z,7.90
2023-11-13T08:50:55.003Z,8.10
2023-11-13T08:53:24.238Z,7.90
2023-11-13T08:55:52.235Z,8.00
2023-11-13T08:58:20.182Z,8.20
2023-11-13T09:00:50.313Z,8.00
2023-11-13T09:03:18.424Z,8.30
2023-11-13T09:05:47.768Z,8.10
2023-11-13T09:08:15.756Z,8.00
2023-11-13T09:10:45.755Z,8.10
2023-11-13T09:13:14.090Z,8.00
2023-11-13T09:15:42.626Z,8.00
2023-11-13T09:18:11.999Z,8.30
2023-11-13T09:20:43.350Z,8.30
2023-11-13T09:23:11.813Z,8.00
2023-11-13T09:25:40.709Z,8.10
2023-11-13T09:28:09.433Z,8.30
2023-11-13T09:30:37.413Z,8.20
2023-11-13T09:33:06.562Z,8.20
2023-11-13T09:35:37.502Z,8.10
2023-11-13T09:38:08.479Z,8.30
2023-11-13T09:40:36.723Z,8.40
2023-11-13T09:43:13.720Z,8.50
2023-11-13T09:45:45.195Z,8.20
2023-11-13T09:48:17.165Z,8.30
2023-11-13T09:50:46.480Z,8.50
2023-11-13T09:53:16.751Z,8.60
2023-11-13T09:55:47.734Z,8.50
2023-11-13T09:58:15.945Z,8.30
2023-11-13T10:00:44.060Z,8.50
2023-11-13T10:03:15.464Z,8.70
2023-11-13T10:05:44.405Z,8.70
2023-11-13T10:08:15.524Z,8.70
2023-11-13T10:10:44.516Z,8.70
2023-11-13T10:13:14.311Z,8.70
2023-11-13T10:15:44.307Z,8.50
2023-11-13T10:18:15.520Z,8.60
2023-11-13T10:20:46.465Z,8.70
2023-11-13T10:23:17.696Z,8.10
2023-11-13T10:25:48.120Z,7.90
2023-11-13T10:28:18.699Z,8.10
2023-11-13T10:30:57.758Z,8.20
2023-11-13T10:33:26.105Z,8.30
2023-11-13T10:35:54.689Z,8.30
2023-11-13T10:38:25.601Z,8.30
2023-11-13T10:40:59.806Z,8.20
2023-11-13T10:43:31.905Z,8.30
2023-11-13T10:46:00.992Z,8.60
2023-11-13T10:48:34.091Z,8.40
2023-11-13T10:51:05.091Z,8.50
2023-11-13T10:53:36.862Z,8.60
2023-11-13T10:56:06.460Z,8.60
2023-11-13T10:58:34.529Z,8.60
2023-11-13T11:01:07.278Z,8.50
2023-11-13T11:03:40.946Z,8.40
2023-11-13T11:06:15.398Z,8.40
2023-11-13T11:08:45.930Z,8.90
2023-11-13T11:11:15.779Z,8.80
2023-11-13T11:13:48.483Z,8.80
2023-11-13T11:16:29.573Z,8.60
2023-11-13T11:19:06.149Z,8.60
2023-11-13T11:21:44.602Z,8.80
2023-11-13T11:24:28.270Z,8.80
2023-11-13T11:26:59.852Z,8.60
2023-11-13T11:29:38.231Z,8.90
2023-11-13T11:32:14.516Z,8.80
2023-11-13T11:34:44.299Z,8.80
2023-11-13T11:37:14.500Z,8.90
2023-11-13T11:39:50.969Z,8.80
2023-11-13T11:42:20.959Z,9.00
2023-11-13T11:44:59.952Z,9.10
2023-11-13T11:47:30.228Z,8.90
2023-11-13T11:50:00.015Z,9.00
2023-11-13T11:52:50.058Z,9.10
2023-11-13T11:55:20.602Z,9.00
2023-11-13T11:57:49.007Z,9.20
2023-11-13T12:00:20.514Z,9.10
2023-11-13T12:02:49.056Z,9.10
2023-11-13T12:05:17.425Z,9.10
2023-11-13T12:07:45.462Z,9.40
2023-11-13T12:10:13.580Z,9.10
2023-11-13T12:12:45.380Z,9.20
2023-11-13T12:15:13.855Z,9.30
2023-11-13T12:17:43.194Z,9.40
2023-11-13T12:20:20.506Z,9.20
2023-11-13T12:22:50.856Z,9.30
2023-11-13T12:25:19.701Z,9.30
2023-11-13T12:27:50.155Z,9.20
2023-11-13T12:30:20.480Z,9.30
2023-11-13T12:32:48.836Z,9.30
2023-11-13T12:35:18.213Z,9.20
2023-11-13T12:37:47.408Z,9.30
2023-11-13T12:40:18.343Z,9.30
2023-11-13T12:42:46.681Z,9.50
2023-11-13T12:45:18.479Z,9.40
2023-11-13T12:47:47.368Z,9.40
2023-11-13T12:50:15.982Z,9.40
2023-11-13T12:52:47.633Z,9.50
2023-11-13T12:55:19.014Z,9.50
2023-11-13T12:57:47.828Z,9.60
2023-11-13T13:00:19.878Z,9.50
2023-11-13T13:02:50.487Z,9.50
2023-11-13T13:05:29.011Z,9.60
2023-11-13T13:07:59.777Z,9.50
2023-11-13T13:10:31.956Z,9.50
2023-11-13T13:13:01.370Z,9.60
2023-11-13T13:15:32.958Z,9.60
2023-11-13T13:18:00.970Z,9.50
2023-11-13T13:20:32.445Z,9.60
2023-11-13T13:23:02.023Z,9.50
2023-11-13T13:25:32.782Z,9.80
2023-11-13T13:28:01.735Z,9.60
2023-11-13T13:30:33.635Z,9.60
2023-11-13T13:33:02.780Z,9.60
2023-11-13T13:35:31.310Z,9.60
2023-11-13T13:37:59.258Z,9.60
2023-11-13T13:40:28.167Z,9.70
2023-11-13T13:43:00.486Z,9.70
2023-11-13T13:45:30.380Z,9.60
2023-11-13T13:47:58.630Z,9.80
2023-11-13T13:50:27.088Z,9.70
2023-11-13T13:52:57.574Z,9.70
2023-11-13T13:55:28.941Z,9.80
2023-11-13T13:57:58.422Z,9.70
2023-11-13T14:00:36.048Z,9.80
2023-11-13T14:05:41.045Z,9.70
2023-11-13T14:08:13.141Z,9.70
2023-11-13T14:10:41.069Z,9.80
2023-11-13T14:13:12.961Z,9.80
2023-11-13T14:15:50.493Z,9.80
2023-11-13T14:18:30.668Z,9.70
2023-11-13T14:21:00.987Z,9.70
2023-11-13T14:23:29.925Z,9.80
2023-11-13T14:25:58.583Z,9.80
2023-11-13T14:28:27.078Z,9.90
2023-11-13T14:30:56.157Z,9.80
2023-11-13T14:33:24.291Z,9.70
2023-11-13T14:35:53.613Z,9.80
2023-11-13T14:38:21.486Z,9.70
2023-11-13T14:40:49.641Z,9.70
2023-11-13T14:43:17.705Z,9.90
2023-11-13T14:45:46.111Z,9.70
2023-11-13T14:48:14.461Z,9.80
2023-11-13T14:50:42.595Z,9.90
2023-11-13T14:53:15.803Z,9.90
2023-11-13T14:55:44.436Z,9.80
2023-11-13T14:58:13.432Z,9.70
2023-11-13T15:00:41.522Z,9.70
2023-11-13T15:03:09.609Z,9.80
2023-11-13T15:05:38.008Z,9.80
2023-11-13T15:08:07.174Z,9.80
2023-11-13T15:10:39.126Z,9.80
2023-11-13T15:13:09.200Z,9.90
2023-11-13T15:15:37.325Z,10.00
2023-11-13T15:18:05.611Z,9.80
2023-11-13T15:20:35.549Z,9.90
2023-11-13T15:23:19.719Z,10.10
2023-11-13T15:25:52.810Z,10.10
2023-11-13T15:28:20.876Z,10.40
2023-11-13T15:30:49.058Z,10.20
2023-11-13T15:33:17.121Z,10.00
2023-11-13T15:35:44.996Z,10.00
2023-11-13T15:38:16.023Z,10.10
2023-11-13T15:40:43.933Z,10.00
2023-11-13T15:43:13.161Z,10.00
2023-11-13T15:45:41.079Z,9.90
2023-11-13T15:48:09.045Z,10.20
2023-11-13T15:50:37.002Z,10.10
2023-11-13T15:53:05.543Z,10.10
2023-11-13T15:55:33.458Z,9.90
2023-11-13T15:58:02.263Z,9.90
2023-11-13T16:00:31.631Z,9.80
2023-11-13T16:02:59.699Z,10.00
2023-11-13T16:05:27.672Z,9.90
2023-11-13T16:07:55.631Z,9.90
2023-11-13T16:10:24.044Z,10.00
2023-11-13T16:12:53.479Z,10.10
2023-11-13T16:15:23.832Z,10.00
2023-11-13T16:17:53.408Z,10.00
2023-11-13T16:20:22.201Z,10.10
2023-11-13T16:22:50.810Z,10.00
2023-11-13T16:25:18.816Z,10.10
2023-11-13T16:27:46.737Z,10.00
2023-11-13T16:30:14.959Z,10.10
2023-11-13T16:32:42.906Z,10.10
2023-11-13T16:35:13.557Z,10.10
2023-11-13T16:37:41.543Z,10.10
2023-11-13T16:40:10.418Z,10.20
2023-11-13T16:42:40.188Z,10.10
2023-11-13T16:45:10.529Z,10.20
2023-11-13T16:47:38.554Z,10.30
2023-11-13T16:50:09.487Z,10.20
2023-11-13T16:52:39.674Z,10.20
2023-11-13T16:55:09.079Z,10.20
2023-11-13T16:57:38.089Z,10.20
2023-11-13T17:00:10.284Z,10.30
2023-11-13T17:02:38.829Z,10.20
2023-11-13T17:05:07.471Z,10.20
2023-11-13T17:07:35.449Z,10.30
2023-11-13T17:10:05.085Z,10.20
2023-11-13T17:12:32.983Z,10.20
2023-11-13T17:15:00.959Z,10.10
2023-11-13T17:17:29.454Z,10.20
2023-11-13T17:19:57.353Z,10.20
2023-11-13T17:22:25.302Z,10.20
2023-11-13T17:24:53.313Z,10.20
2023-11-13T17:27:22.580Z,10.20
2023-11-13T17:29:50.887Z,10.20
2023-11-13T17:32:19.197Z,10.30
2023-11-13T17:34:47.610Z,10.30
2023-11-13T17:37:15.658Z,10.50
2023-11-13T17:39:46.359Z,10.40
2023-11-13T17:42:14.605Z,10.40
2023-11-13T17:44:43.938Z,10.30
2023-11-13T17:47:12.014Z,10.50
2023-11-13T17:49:40.058Z,10.50
2023-11-13T17:52:08.457Z,10.50
2023-11-13T17:54:37.452Z,10.40
2023-11-13T17:57:09.731Z,10.50
2023-11-13T17:59:37.702Z,10.40
2023-11-13T18:02:08.999Z,10.40
2023-11-13T18:04:37.257Z,10.50
2023-11-13T18:07:05.602Z,10.50
2023-11-13T18:09:33.538Z,10.40
2023-11-13T18:12:01.723Z,10.50
2023-11-13T18:14:30.142Z,10.50
2023-11-13T18:16:58.269Z,10.40
2023-11-13T18:19:27.629Z,10.50
2023-11-13T18:21:57.771Z,10.50
2023-11-13T18:24:25.637Z,10.60
2023-11-13T18:26:53.528Z,10.50
2023-11-13T18:29:22.452Z,10.60
2023-11-13T18:31:50.908Z,10.60
2023-11-13T18:34:20.340Z,10.60
2023-11-13T18:36:49.663Z,10.60
2023-11-13T18:39:17.743Z,10.60
2023-11-13T18:41:45.646Z,10.60
2023-11-13T18:44:13.767Z,10.60
2023-11-13T18:46:41.858Z,10.60
2023-11-13T18:49:09.782Z,10.70
2023-11-13T18:51:37.694Z,10.70
2023-11-13T18:54:07.229Z,10.70
2023-11-13T18:56:35.105Z,10.70
2023-11-13T18:59:05.388Z,10.70
2023-11-13T19:01:33.358Z,10.80
2023-11-13T19:04:01.477Z,10.70
2023-11-13T19:06:29.627Z,10.80
2023-11-13T19:08:59.061Z,10.90
2023-11-13T19:11:30.706Z,10.90
2023-11-13T19:14:02.256Z,11.00
2023-11-13T19:16:30.242Z,11.00
2023-11-13T19:18:58.177Z,11.00
2023-11-13T19:21:29.211Z,11.00
2023-11-13T19:23:58.825Z,11.20
2023-11-13T19:26:28.352Z,11.10
2023-11-13T19:28:56.282Z,11.10
2023-11-13T19:31:24.570Z,11.10
2023-11-13T19:33:54.219Z,11.10
2023-11-13T19:36:23.768Z,11.10
2023-11-13T19:38:51.659Z,11.10
2023-11-13T19:41:20.460Z,11.10
2023-11-13T19:43:49.816Z,11.10
2023-11-13T19:46:17.843Z,11.10
2023-11-13T19:48:45.787Z,11.20
2023-11-13T19:51:13.645Z,11.10
2023-11-13T19:53:41.560Z,11.30
2023-11-13T19:56:09.461Z,11.40
2023-11-13T19:58:37.982Z,11.30
2023-11-13T20:01:07.412Z,11.30
2023-11-13T20:03:35.549Z,11.60
2023-11-13T20:06:03.563Z,11.50
2023-11-13T20:08:31.478Z,11.40
2023-11-13T20:11:00.770Z,11.40
2023-11-13T20:13:28.945Z,11.40
2023-11-13T20:15:57.018Z,11.50
2023-11-13T20:18:33.900Z,11.60
2023-11-13T20:21:05.478Z,11.50
2023-11-13T20:23:33.443Z,11.60
2023-11-13T20:26:01.353Z,11.60
2023-11-13T20:28:29.262Z,11.60
2023-11-13T20:30:58.204Z,11.60
2023-11-13T20:33:28.711Z,11.50
2023-11-13T20:35:56.858Z,11.70
2023-11-13T20:38:24.913Z,11.70
2023-11-13T20:40:53.402Z,11.70
2023-11-13T20:43:21.862Z,11.70
2023-11-13T20:45:49.858Z,11.70
2023-11-13T20:48:17.891Z,11.70
2023-11-13T20:50:47.786Z,11.70
2023-11-13T20:53:15.879Z,11.70
2023-11-13T20:55:43.911Z,11.60
2023-11-13T20:58:11.798Z,11.90
2023-11-13T21:00:39.659Z,11.80
2023-11-13T21:03:10.543Z,11.70
2023-11-13T21:05:38.532Z,11.70
2023-11-13T21:08:07.893Z,11.60
2023-11-13T21:10:36.054Z,11.70
2023-11-13T21:13:04.771Z,11.70
2023-11-13T21:15:32.666Z,11.80
2023-11-13T21:18:02.001Z,11.70
2023-11-13T21:20:30.331Z,11.80
2023-11-13T21:22:58.468Z,11.70
2023-11-13T21:25:28.408Z,11.70
2023-11-13T21:27:56.383Z,11.60
2023-11-13T21:30:24.773Z,11.70
2023-11-13T21:32:52.771Z,11.70
2023-11-13T21:35:21.229Z,11.70
2023-11-13T21:37:49.173Z,11.60
2023-11-13T21:40:19.805Z,11.60
2023-11-13T21:42:49.175Z,11.60
2023-11-13T21:45:18.309Z,11.60
2023-11-13T21:47:47.002Z,11.60
2023-11-13T21:50:15.074Z,11.60
2023-11-13T21:52:44.233Z,11.60
2023-11-13T21:55:12.641Z,11.60
2023-11-13T21:57:41.069Z,11.70
2023-11-13T22:00:12.479Z,11.80
2023-11-13T22:02:41.396Z,11.60
2023-11-13T22:05:10.079Z,11.70
2023-11-13T22:07:40.459Z,11.70
2023-11-13T22:10:09.420Z,11.70
2023-11-13T22:12:37.720Z,11.80
2023-11-13T22:15:10.117Z,11.70
2023-11-13T22:17:39.809Z,11.80
2023-11-13T22:20:08.809Z,11.90
2023-11-13T22:22:37.533Z,11.80
2023-11-13T22:25:05.940Z,11.90
2023-11-13T22:27:33.992Z,11.80
2023-11-13T22:30:04.589Z,11.90
2023-11-13T22:32:32.524Z,11.90
2023-11-13T22:35:03.100Z,11.90
2023-11-13T22:37:31.054Z,11.90
2023-11-13T22:39:59.083Z,11.90
2023-11-13T22:42:29.049Z,12.20
2023-11-13T22:44:56.914Z,12.00
2023-11-13T22:47:25.000Z,12.00
2023-11-13T22:49:53.326Z,12.00
2023-11-13T22:52:23.217Z,11.90
2023-11-13T22:54:52.414Z,11.80
2023-11-13T22:57:20.524Z,11.90
2023-11-13T23:02:29.972Z,11.90
2023-11-13T23:05:01.248Z,11.80
2023-11-13T23:07:30.537Z,11.90
2023-11-13T23:09:58.450Z,11.80
2023-11-13T23:12:28.101Z,11.90
2023-11-13T23:14:55.960Z,11.90
2023-11-13T23:17:23.916Z,11.90
2023-11-13T23:19:52.203Z,11.80
2023-11-13T23:22:20.404Z,11.80
2023-11-13T23:24:50.322Z,11.80
2023-11-13T23:27:18.242Z,11.80
2023-11-13T23:29:46.112Z,11.90
2023-11-13T23:32:14.024Z,11.80
2023-11-13T23:34:42.244Z,11.70
2023-11-13T23:37:10.949Z,11.70
2023-11-13T23:39:38.841Z,11.90
2023-11-13T23:42:08.770Z,11.90
2023-11-13T23:44:36.695Z,11.80
2023-11-13T23:47:04.753Z,11.90
2023-11-13T23:49:32.672Z,11.80
2023-11-13T23:52:00.576Z,11.80
2023-11-13T23:54:28.464Z,11.80
2023-11-13T23:56:56.344Z,11.90
2023-11-13T23:59:26.197Z,12.00
